createdAt,value
2023-10-03T00:00:45.602Z,89.51
2023-10-03T00:03:15.272Z,88.70
2023-10-03T00:05:46.542Z,88.32
2023-10-03T00:08:16.465Z,87.94
2023-10-03T00:10:46.379Z,87.31
2023-10-03T00:13:18.502Z,86.75
2023-10-03T00:15:46.863Z,86.16
2023-10-03T00:18:16.265Z,85.46
2023-10-03T00:20:45.352Z,84.88
2023-10-03T00:23:15.207Z,84.88
2023-10-03T00:25:43.577Z,84.33
2023-10-03T00:28:13.590Z,83.75
2023-10-03T00:30:42.630Z,83.35
2023-10-03T00:33:14.182Z,82.98
2023-10-03T00:35:43.921Z,82.55
2023-10-03T00:38:15.641Z,82.47
2023-10-03T00:40:52.266Z,82.38
2023-10-03T00:43:21.082Z,82.29
2023-10-03T00:45:50.754Z,82.64
2023-10-03T00:48:22.000Z,82.33
2023-10-03T00:50:50.802Z,82.57
2023-10-03T00:53:19.758Z,82.69
2023-10-03T00:55:49.926Z,82.45
2023-10-03T00:58:29.537Z,82.19
2023-10-03T01:00:59.254Z,81.89
2023-10-03T01:03:32.191Z,82.45
2023-10-03T01:06:06.390Z,82.14
2023-10-03T01:08:38.020Z,82.53
2023-10-03T01:11:14.519Z,82.46
2023-10-03T01:13:43.671Z,82.38
2023-10-03T01:16:13.713Z,82.28
2023-10-03T01:18:43.852Z,81.96
2023-10-03T01:21:12.900Z,82.04
2023-10-03T01:23:43.805Z,82.19
2023-10-03T01:26:14.750Z,82.08
2023-10-03T01:28:43.424Z,82.21
2023-10-03T01:31:12.205Z,81.90
2023-10-03T01:33:41.495Z,81.79
2023-10-03T01:36:10.251Z,81.96
2023-10-03T01:38:38.673Z,81.95
2023-10-03T01:41:08.863Z,81.84
2023-10-03T01:43:39.622Z,82.13
2023-10-03T01:46:08.743Z,82.17
2023-10-03T01:48:37.827Z,82.49
2023-10-03T01:51:08.132Z,82.72
2023-10-03T01:53:36.614Z,83.04
2023-10-03T01:56:07.076Z,83.28
2023-10-03T01:58:37.032Z,83.88
2023-10-03T02:01:05.951Z,83.96
2023-10-03T02:03:36.771Z,84.38
2023-10-03T02:06:07.249Z,84.26
2023-10-03T02:08:36.156Z,84.31
2023-10-03T02:11:08.013Z,84.21
2023-10-03T02:13:39.891Z,84.67
2023-10-03T02:16:09.017Z,84.87
2023-10-03T02:18:37.491Z,85.07
2023-10-03T02:21:07.106Z,85.60
2023-10-03T02:23:35.557Z,85.95
2023-10-03T02:26:10.955Z,86.33
2023-10-03T02:28:42.013Z,86.63
2023-10-03T02:31:11.679Z,86.83
2023-10-03T02:33:44.929Z,87.01
2023-10-03T02:36:16.135Z,86.66
2023-10-03T02:38:45.384Z,86.43
2023-10-03T02:41:14.947Z,86.32
2023-10-03T02:43:48.234Z,86.37
2023-10-03T02:46:28.076Z,86.36
2023-10-03T02:48:57.242Z,87.19
2023-10-03T02:51:25.884Z,87.77
2023-10-03T02:53:54.758Z,88.23
2023-10-03T02:56:23.903Z,88.39
2023-10-03T02:58:53.952Z,89.08
2023-10-03T03:01:22.964Z,89.97
2023-10-03T03:03:54.168Z,92.09
2023-10-03T03:06:23.945Z,94.07
2023-10-03T03:08:53.739Z,94.70
2023-10-03T03:11:22.720Z,95.20
2023-10-03T03:13:51.618Z,95.64
2023-10-03T03:16:21.662Z,96.00
2023-10-03T03:18:51.479Z,96.52
2023-10-03T03:21:21.782Z,96.98
2023-10-03T03:23:59.075Z,97.12
2023-10-03T03:26:38.267Z,97.21
2023-10-03T03:29:21.385Z,97.67
2023-10-03T03:31:52.753Z,98.03
2023-10-03T03:34:21.934Z,98.41
2023-10-03T03:36:56.019Z,98.48
2023-10-03T03:39:27.832Z,98.52
2023-10-03T03:41:56.478Z,98.86
2023-10-03T03:44:26.507Z,99.21
2023-10-03T03:46:56.703Z,99.19
2023-10-03T03:49:26.846Z,98.93
2023-10-03T03:51:55.316Z,98.80
2023-10-03T03:54:23.661Z,98.61
2023-10-03T03:56:52.241Z,98.47
2023-10-03T03:59:20.792Z,98.66
2023-10-03T04:01:51.108Z,98.70
2023-10-03T04:04:21.520Z,98.84
2023-10-03T04:06:49.940Z,98.35
2023-10-03T04:09:20.287Z,98.15
2023-10-03T04:11:49.440Z,98.26
2023-10-03T04:14:18.368Z,97.84
2023-10-03T04:16:46.731Z,97.09
2023-10-03T04:19:15.126Z,96.92
2023-10-03T04:21:45.229Z,96.49
2023-10-03T04:24:16.416Z,96.38
2023-10-03T04:26:45.312Z,96.21
2023-10-03T04:29:16.687Z,95.74
2023-10-03T04:31:47.734Z,94.92
2023-10-03T04:34:20.897Z,94.94
2023-10-03T04:36:51.256Z,94.83
2023-10-03T04:39:21.484Z,94.58
2023-10-03T04:41:50.039Z,94.64
2023-10-03T04:44:18.997Z,94.72
2023-10-03T04:46:49.190Z,94.77
2023-10-03T04:49:17.767Z,95.12
2023-10-03T04:51:48.492Z,95.05
2023-10-03T04:54:19.083Z,95.32
2023-10-03T04:56:50.328Z,95.29
2023-10-03T04:59:22.628Z,95.33
2023-10-03T05:01:51.286Z,95.39
2023-10-03T05:04:19.873Z,95.65
2023-10-03T05:06:50.480Z,95.68
2023-10-03T05:09:20.272Z,95.47
2023-10-03T05:11:51.577Z,95.61
2023-10-03T05:14:20.342Z,95.75
2023-10-03T05:16:51.990Z,95.21
2023-10-03T05:19:21.050Z,94.99
2023-10-03T05:21:49.407Z,94.85
2023-10-03T05:24:17.727Z,94.57
2023-10-03T05:26:47.542Z,94.83
2023-10-03T05:29:17.907Z,95.13
2023-10-03T05:31:46.710Z,95.43
2023-10-03T05:34:16.544Z,94.90
2023-10-03T05:36:45.563Z,94.66
2023-10-03T05:39:18.213Z,93.92
2023-10-03T05:41:49.426Z,92.38
2023-10-03T05:44:19.821Z,91.99
2023-10-03T05:46:54.182Z,91.57
2023-10-03T05:49:23.275Z,90.96
2023-10-03T05:51:56.843Z,90.54
2023-10-03T05:54:27.209Z,90.00
2023-10-03T05:56:57.833Z,89.77
2023-10-03T05:59:28.089Z,89.29
2023-10-03T06:01:58.240Z,89.21
2023-10-03T06:04:27.105Z,88.97
2023-10-03T06:06:56.878Z,88.48
2023-10-03T06:09:27.662Z,88.43
2023-10-03T06:11:58.038Z,88.69
2023-10-03T06:14:26.731Z,88.79
2023-10-03T06:16:55.085Z,89.47
2023-10-03T06:19:23.532Z,89.85
2023-10-03T06:21:51.838Z,90.52
2023-10-03T06:24:20.927Z,90.81
2023-10-03T06:26:49.301Z,93.09
2023-10-03T06:29:19.040Z,94.32
2023-10-03T06:31:47.562Z,95.34
2023-10-03T06:34:17.639Z,97.19
2023-10-03T06:36:46.044Z,97.87
2023-10-03T06:39:15.146Z,99.23
2023-10-03T06:41:43.502Z,100.00
2023-10-03T06:44:12.563Z,100.00
2023-10-03T06:46:43.432Z,100.00
2023-10-03T06:49:12.831Z,100.00
2023-10-03T06:51:41.731Z,100.00
2023-10-03T06:54:10.242Z,100.00
2023-10-03T06:56:38.860Z,100.00
2023-10-03T06:59:09.532Z,100.00
2023-10-03T07:01:38.730Z,100.00
2023-10-03T07:04:09.167Z,100.00
2023-10-03T07:06:37.951Z,100.00
2023-10-03T07:09:09.579Z,100.00
2023-10-03T07:11:38.104Z,100.00
2023-10-03T07:14:06.575Z,100.00
2023-10-03T07:16:42.418Z,100.00
2023-10-03T07:19:13.247Z,100.00
2023-10-03T07:21:41.894Z,100.00
2023-10-03T07:24:10.385Z,100.00
2023-10-03T07:26:39.049Z,100.00
2023-10-03T07:29:07.607Z,100.00
2023-10-03T07:31:35.999Z,100.00
2023-10-03T07:34:05.290Z,100.00
2023-10-03T07:36:35.132Z,100.00
2023-10-03T07:39:04.744Z,100.00
2023-10-03T07:41:34.854Z,100.00
2023-10-03T07:44:03.994Z,100.00
2023-10-03T07:46:33.013Z,100.00
2023-10-03T07:49:03.708Z,100.00
2023-10-03T07:51:33.323Z,100.00
2023-10-03T07:54:04.113Z,100.00
2023-10-03T07:56:34.462Z,100.00
2023-10-03T07:59:05.644Z,100.00
2023-10-03T08:01:57.551Z,100.00
2023-10-03T08:04:33.016Z,100.00
2023-10-03T08:07:02.139Z,100.00
2023-10-03T08:09:35.029Z,100.00
2023-10-03T08:12:12.765Z,100.00
2023-10-03T08:14:43.564Z,100.00
2023-10-03T08:17:13.235Z,100.00
2023-10-03T08:19:46.609Z,100.00
2023-10-03T08:22:16.387Z,100.00
2023-10-03T08:24:46.212Z,100.00
2023-10-03T08:27:20.469Z,100.00
2023-10-03T08:29:55.083Z,100.00
2023-10-03T08:32:26.333Z,100.00
2023-10-03T08:34:54.737Z,100.00
2023-10-03T08:37:23.566Z,100.00
2023-10-03T08:39:54.309Z,100.00
2023-10-03T08:42:35.276Z,100.00
2023-10-03T08:45:18.069Z,100.00
2023-10-03T08:47:49.528Z,100.00
2023-10-03T08:50:34.835Z,100.00
2023-10-03T08:53:16.890Z,100.00
2023-10-03T08:55:49.191Z,100.00
2023-10-03T08:58:20.078Z,100.00
2023-10-03T09:00:51.013Z,100.00
2023-10-03T09:03:20.946Z,100.00
2023-10-03T09:05:50.334Z,100.00
2023-10-03T09:08:19.635Z,100.00
2023-10-03T09:10:56.576Z,100.00
2023-10-03T09:13:28.944Z,100.00
2023-10-03T09:16:03.691Z,100.00
2023-10-03T09:18:42.195Z,100.00
2023-10-03T09:21:16.618Z,100.00
2023-10-03T09:24:02.668Z,100.00
2023-10-03T09:26:47.881Z,100.00
2023-10-03T09:29:21.346Z,100.00
2023-10-03T09:31:50.842Z,100.00
2023-10-03T09:34:19.658Z,100.00
2023-10-03T09:36:49.921Z,100.00
2023-10-03T09:39:23.365Z,100.00
2023-10-03T09:41:57.062Z,100.00
2023-10-03T09:44:32.077Z,100.00
2023-10-03T09:47:05.171Z,100.00
2023-10-03T09:49:39.488Z,100.00
2023-10-03T09:52:19.055Z,100.00
2023-10-03T09:54:47.546Z,100.00
2023-10-03T09:57:19.853Z,100.00
2023-10-03T09:59:49.634Z,100.00
2023-10-03T10:02:31.468Z,100.00
2023-10-03T10:05:04.427Z,100.00
2023-10-03T10:07:37.472Z,100.00
2023-10-03T10:10:15.173Z,100.00
2023-10-03T10:13:13.399Z,100.00
2023-10-03T10:16:13.388Z,100.00
2023-10-03T10:19:02.918Z,100.00
2023-10-03T10:21:38.110Z,100.00
2023-10-03T10:24:29.341Z,100.00
2023-10-03T10:27:01.159Z,100.00
2023-10-03T10:29:35.716Z,100.00
2023-10-03T10:32:20.035Z,99.48
2023-10-03T10:34:49.225Z,98.72
2023-10-03T10:37:19.187Z,100.00
2023-10-03T10:40:12.842Z,100.00
2023-10-03T10:43:08.052Z,100.00
2023-10-03T10:45:41.436Z,100.00
2023-10-03T10:48:12.862Z,100.00
2023-10-03T10:51:11.251Z,100.00
2023-10-03T10:53:46.007Z,100.00
2023-10-03T10:56:15.988Z,100.00
2023-10-03T10:58:54.609Z,100.00
2023-10-03T11:01:24.812Z,100.00
2023-10-03T11:03:54.563Z,100.00
2023-10-03T11:06:25.054Z,100.00
2023-10-03T11:08:53.740Z,100.00
2023-10-03T11:11:22.245Z,100.00
2023-10-03T11:13:54.562Z,100.00
2023-10-03T11:16:29.544Z,100.00
2023-10-03T11:18:59.795Z,100.00
2023-10-03T11:21:31.246Z,100.00
2023-10-03T11:24:17.280Z,100.00
2023-10-03T11:26:48.930Z,100.00
2023-10-03T11:29:33.300Z,100.00
2023-10-03T11:32:03.509Z,100.00
2023-10-03T11:34:34.033Z,100.00
2023-10-03T11:37:04.230Z,100.00
2023-10-03T11:39:39.600Z,100.00
2023-10-03T11:42:25.746Z,100.00
2023-10-03T11:45:00.839Z,99.35
2023-10-03T11:47:31.203Z,100.00
2023-10-03T11:49:59.921Z,100.00
2023-10-03T11:52:30.393Z,100.00
2023-10-03T11:54:59.844Z,100.00
2023-10-03T11:57:28.183Z,100.00
2023-10-03T11:59:56.490Z,100.00
2023-10-03T12:02:24.826Z,100.00
2023-10-03T12:04:54.567Z,100.00
2023-10-03T12:07:23.099Z,100.00
2023-10-03T12:09:51.402Z,100.00
2023-10-03T12:12:19.759Z,100.00
2023-10-03T12:14:48.534Z,100.00
2023-10-03T12:17:16.872Z,100.00
2023-10-03T12:19:45.221Z,100.00
2023-10-03T12:22:14.949Z,100.00
2023-10-03T12:24:43.332Z,100.00
2023-10-03T12:27:11.921Z,100.00
2023-10-03T12:29:40.328Z,97.79
2023-10-03T12:32:08.706Z,92.35
2023-10-03T12:34:37.076Z,91.46
2023-10-03T12:37:12.565Z,90.73
2023-10-03T12:39:42.718Z,90.02
2023-10-03T12:42:12.038Z,90.12
2023-10-03T12:44:40.948Z,89.60
2023-10-03T12:47:09.441Z,89.00
2023-10-03T12:49:37.725Z,87.20
2023-10-03T12:52:06.229Z,82.35
2023-10-03T12:54:34.552Z,81.84
2023-10-03T12:57:04.294Z,80.57
2023-10-03T12:59:32.713Z,80.46
2023-10-03T13:02:01.131Z,79.80
2023-10-03T13:04:29.745Z,78.86
2023-10-03T13:06:59.499Z,78.87
2023-10-03T13:09:29.118Z,77.91
2023-10-03T13:11:59.328Z,77.10
2023-10-03T13:14:29.103Z,78.20
2023-10-03T13:17:00.837Z,75.74
2023-10-03T13:19:30.254Z,76.40
2023-10-03T13:21:59.592Z,75.80
2023-10-03T13:24:28.125Z,75.13
2023-10-03T13:26:56.503Z,72.42
2023-10-03T13:29:25.026Z,71.50
2023-10-03T13:31:54.728Z,71.48
2023-10-03T13:34:23.019Z,71.16
2023-10-03T13:36:51.443Z,71.06
2023-10-03T13:39:20.574Z,71.32
2023-10-03T13:41:49.251Z,71.38
2023-10-03T13:44:17.769Z,69.83
2023-10-03T13:46:47.068Z,69.45
2023-10-03T13:49:20.321Z,67.19
2023-10-03T13:51:48.938Z,66.77
2023-10-03T13:54:17.298Z,68.30
2023-10-03T13:56:45.929Z,68.21
2023-10-03T13:59:14.400Z,68.37
2023-10-03T14:01:42.748Z,69.13
2023-10-03T14:04:13.969Z,68.97
2023-10-03T14:06:43.902Z,69.78
2023-10-03T14:09:13.419Z,68.49
2023-10-03T14:11:42.232Z,68.67
2023-10-03T14:14:12.049Z,69.41
2023-10-03T14:16:40.450Z,69.60
2023-10-03T14:19:08.795Z,68.93
2023-10-03T14:21:45.851Z,68.79
2023-10-03T14:24:16.905Z,69.07
2023-10-03T14:26:45.464Z,69.13
2023-10-03T14:29:13.839Z,69.07
2023-10-03T14:31:42.689Z,67.90
2023-10-03T14:34:11.402Z,66.17
2023-10-03T14:36:40.172Z,66.23
2023-10-03T14:39:13.725Z,65.51
2023-10-03T14:41:43.632Z,65.25
2023-10-03T14:44:12.024Z,65.44
2023-10-03T14:46:40.425Z,66.30
2023-10-03T14:49:09.118Z,65.85
2023-10-03T14:51:37.451Z,66.43
2023-10-03T14:54:07.136Z,67.07
2023-10-03T14:56:35.519Z,67.27
2023-10-03T14:59:06.222Z,68.16
2023-10-03T15:01:34.590Z,65.93
2023-10-03T15:04:03.218Z,65.98
2023-10-03T15:06:32.203Z,65.79
2023-10-03T15:09:00.694Z,65.76
2023-10-03T15:11:29.012Z,66.61
2023-10-03T15:13:57.443Z,67.30
2023-10-03T15:16:27.195Z,67.83
2023-10-03T15:18:55.619Z,67.98
2023-10-03T15:21:24.291Z,67.24
2023-10-03T15:23:53.390Z,68.02
2023-10-03T15:26:21.948Z,67.90
2023-10-03T15:28:50.682Z,68.21
2023-10-03T15:31:24.445Z,68.47
2023-10-03T15:33:55.796Z,67.73
2023-10-03T15:36:24.279Z,67.93
2023-10-03T15:38:52.681Z,67.69
2023-10-03T15:41:21.013Z,67.52
2023-10-03T15:43:49.477Z,67.50
2023-10-03T15:46:18.380Z,67.24
2023-10-03T15:48:46.938Z,67.01
2023-10-03T15:51:17.445Z,66.59
2023-10-03T15:53:46.887Z,65.80
2023-10-03T15:56:18.380Z,65.46
2023-10-03T15:58:47.309Z,65.37
2023-10-03T16:01:16.466Z,65.20
2023-10-03T16:03:46.892Z,65.10
2023-10-03T16:06:18.260Z,65.32
2023-10-03T16:08:49.806Z,65.64
2023-10-03T16:11:18.213Z,66.22
2023-10-03T16:13:47.243Z,66.49
2023-10-03T16:16:16.343Z,66.60
2023-10-03T16:18:47.253Z,66.84
2023-10-03T16:21:17.077Z,66.89
2023-10-03T16:23:45.466Z,67.63
2023-10-03T16:26:13.816Z,68.21
2023-10-03T16:28:42.228Z,68.90
2023-10-03T16:31:11.169Z,71.90
2023-10-03T16:33:39.617Z,73.33
2023-10-03T16:36:08.588Z,74.00
2023-10-03T16:38:38.394Z,74.58
2023-10-03T16:41:06.728Z,74.54
2023-10-03T16:43:36.460Z,75.02
2023-10-03T16:46:10.273Z,74.15
2023-10-03T16:48:39.470Z,73.71
2023-10-03T16:51:07.978Z,73.68
2023-10-03T16:53:38.002Z,73.86
2023-10-03T16:56:07.046Z,73.68
2023-10-03T16:58:35.450Z,73.71
2023-10-03T17:01:03.857Z,73.68
2023-10-03T17:03:33.851Z,73.44
2023-10-03T17:06:02.386Z,73.38
2023-10-03T17:08:31.623Z,73.43
2023-10-03T17:11:01.439Z,73.51
2023-10-03T17:13:29.799Z,73.16
2023-10-03T17:15:58.278Z,73.33
2023-10-03T17:18:26.695Z,72.64
2023-10-03T17:20:55.199Z,72.00
2023-10-03T17:23:23.557Z,72.33
2023-10-03T17:25:51.953Z,72.51
2023-10-03T17:28:21.688Z,73.42
2023-10-03T17:30:50.147Z,73.37
2023-10-03T17:33:18.603Z,73.92
2023-10-03T17:35:47.124Z,73.37
2023-10-03T17:38:15.499Z,72.77
2023-10-03T17:40:43.839Z,72.43
2023-10-03T17:43:12.796Z,71.83
2023-10-03T17:45:43.531Z,70.32
2023-10-03T17:48:14.314Z,70.30
2023-10-03T17:50:49.184Z,70.36
2023-10-03T17:53:17.729Z,70.07
2023-10-03T17:55:46.123Z,69.77
2023-10-03T17:58:17.602Z,69.56
2023-10-03T18:00:48.041Z,69.41
2023-10-03T18:03:16.735Z,69.06
2023-10-03T18:05:45.382Z,69.57
2023-10-03T18:08:13.744Z,69.60
2023-10-03T18:10:42.156Z,68.52
2023-10-03T18:13:11.080Z,68.24
2023-10-03T18:15:39.407Z,66.82
2023-10-03T18:18:10.054Z,66.80
2023-10-03T18:20:38.620Z,67.22
2023-10-03T18:23:07.063Z,67.23
2023-10-03T18:25:35.430Z,66.89
2023-10-03T18:28:03.907Z,66.62
2023-10-03T18:30:32.289Z,66.00
2023-10-03T18:33:01.022Z,66.18
2023-10-03T18:35:31.002Z,66.37
2023-10-03T18:37:59.469Z,65.69
2023-10-03T18:40:29.684Z,66.08
2023-10-03T18:42:58.090Z,65.24
2023-10-03T18:45:26.551Z,64.83
2023-10-03T18:47:55.134Z,64.99
2023-10-03T18:50:23.523Z,65.13
2023-10-03T18:52:53.557Z,65.26
2023-10-03T18:55:22.160Z,65.13
2023-10-03T18:57:50.534Z,65.29
2023-10-03T19:00:20.936Z,65.64
2023-10-03T19:02:51.535Z,65.00
2023-10-03T19:05:21.600Z,64.52
2023-10-03T19:07:50.268Z,65.21
2023-10-03T19:10:20.702Z,64.99
2023-10-03T19:12:49.064Z,64.62
2023-10-03T19:15:17.574Z,63.50
2023-10-03T19:17:46.047Z,63.75
2023-10-03T19:20:16.046Z,63.21
2023-10-03T19:22:44.429Z,63.50
2023-10-03T19:25:14.127Z,63.25
2023-10-03T19:27:43.969Z,63.13
2023-10-03T19:30:18.192Z,63.15
2023-10-03T19:32:49.025Z,63.63
2023-10-03T19:35:19.657Z,64.02
2023-10-03T19:37:49.106Z,64.19
2023-10-03T19:40:19.144Z,63.01
2023-10-03T19:42:49.001Z,62.64
2023-10-03T19:45:18.882Z,62.59
2023-10-03T19:47:47.455Z,62.72
2023-10-03T19:50:17.864Z,63.03
2023-10-03T19:52:46.486Z,62.29
2023-10-03T19:55:17.179Z,62.00
2023-10-03T19:57:45.665Z,62.23
2023-10-03T20:00:17.566Z,62.55
2023-10-03T20:02:46.252Z,63.26
2023-10-03T20:05:15.278Z,63.38
2023-10-03T20:07:43.908Z,62.73
2023-10-03T20:10:16.467Z,61.55
2023-10-03T20:12:46.046Z,61.44
2023-10-03T20:15:16.988Z,61.66
2023-10-03T20:17:45.655Z,61.38
2023-10-03T20:20:14.653Z,61.66
2023-10-03T20:22:44.024Z,61.76
2023-10-03T20:25:14.235Z,62.17
2023-10-03T20:27:43.505Z,61.92
2023-10-03T20:30:13.483Z,61.94
2023-10-03T20:32:43.984Z,61.99
2023-10-03T20:35:13.433Z,62.01
2023-10-03T20:37:42.276Z,62.20
2023-10-03T20:40:11.863Z,61.78
2023-10-03T20:42:40.501Z,60.97
2023-10-03T20:45:10.712Z,61.71
2023-10-03T20:47:40.039Z,61.81
2023-10-03T20:50:11.191Z,60.95
2023-10-03T20:52:40.287Z,60.67
2023-10-03T20:55:09.408Z,60.63
2023-10-03T20:57:38.623Z,60.77
2023-10-03T21:00:13.702Z,61.12
2023-10-03T21:02:42.794Z,61.30
2023-10-03T21:05:16.057Z,62.12
2023-10-03T21:07:46.036Z,62.46
2023-10-03T21:10:16.909Z,62.81
2023-10-03T21:12:45.772Z,63.03
2023-10-03T21:15:16.852Z,63.70
2023-10-03T21:17:45.751Z,63.49
2023-10-03T21:20:16.622Z,63.54
2023-10-03T21:22:46.194Z,63.61
2023-10-03T21:25:14.949Z,63.88
2023-10-03T21:27:43.410Z,63.79
2023-10-03T21:30:13.535Z,63.74
2023-10-03T21:32:42.654Z,64.02
2023-10-03T21:35:11.362Z,63.77
2023-10-03T21:37:41.402Z,63.97
2023-10-03T21:40:11.257Z,64.20
2023-10-03T21:42:42.476Z,64.82
2023-10-03T21:45:13.129Z,65.10
2023-10-03T21:47:41.699Z,65.59
2023-10-03T21:50:11.292Z,65.49
2023-10-03T21:52:41.531Z,64.97
2023-10-03T21:55:11.032Z,64.09
2023-10-03T21:57:39.683Z,64.31
2023-10-03T22:00:27.397Z,64.20
2023-10-03T22:02:56.273Z,64.68
2023-10-03T22:05:25.028Z,64.62
2023-10-03T22:07:54.740Z,64.79
2023-10-03T22:10:23.140Z,65.77
2023-10-03T22:12:52.079Z,65.91
2023-10-03T22:15:20.525Z,65.61
2023-10-03T22:17:49.069Z,66.27
2023-10-03T22:20:17.470Z,67.25
2023-10-03T22:22:45.945Z,67.06
2023-10-03T22:25:16.938Z,66.59
2023-10-03T22:27:45.253Z,66.43
2023-10-03T22:30:15.422Z,65.95
2023-10-03T22:32:44.121Z,66.26
2023-10-03T22:35:14.369Z,66.66
2023-10-03T22:37:51.071Z,66.25
2023-10-03T22:40:32.452Z,66.78
2023-10-03T22:43:00.782Z,67.22
2023-10-03T22:45:29.315Z,67.07
2023-10-03T22:47:57.843Z,67.19
2023-10-03T22:50:26.295Z,67.75
2023-10-03T22:52:54.744Z,67.58
2023-10-03T22:55:23.082Z,67.39
2023-10-03T22:57:52.723Z,67.46
2023-10-03T23:00:22.912Z,66.66
2023-10-03T23:02:51.874Z,66.54
2023-10-03T23:05:20.759Z,67.70
2023-10-03T23:07:49.202Z,68.63
2023-10-03T23:10:17.612Z,68.62
2023-10-03T23:12:46.045Z,69.34
2023-10-03T23:15:18.385Z,70.07
2023-10-03T23:17:46.885Z,70.13
2023-10-03T23:20:15.716Z,70.40
2023-10-03T23:22:44.479Z,70.40
2023-10-03T23:25:14.893Z,70.63
2023-10-03T23:27:43.472Z,69.60
2023-10-03T23:30:15.287Z,69.26
2023-10-03T23:32:43.752Z,69.07
2023-10-03T23:35:13.980Z,68.55
2023-10-03T23:37:42.391Z,69.00
2023-10-03T23:40:15.563Z,68.85
2023-10-03T23:42:45.855Z,69.01
2023-10-03T23:45:18.556Z,68.49
2023-10-03T23:47:47.482Z,68.64
2023-10-03T23:50:19.969Z,69.10
2023-10-03T23:52:51.450Z,69.17
2023-10-03T23:55:20.112Z,69.83
2023-10-03T23:57:52.435Z,69.84
